sensor_id;sensor_type;location;lat;lon;timestamp;P1;durP1;ratioP1;P2;durP2;ratioP2
11486;SDS011;10510;47.942;9.442;2023-01-31T00:00:14;18.17;;;8.70;;
11486;SDS011;10510;47.942;9.442;2023-01-31T00:02:15;15.35;;;7.63;;
11486;SDS011;10510;47.942;9.442;2023-01-31T00:04:15;21.13;;;9.05;;
11486;SDS011;10510;47.942;9.442;2023-01-31T00:06:17;18.90;;;9.27;;
11486;SDS011;10510;47.942;9.442;2023-01-31T00:08:27;21.10;;;8.55;;
11486;SDS011;10510;47.942;9.442;2023-01-31T00:10:27;16.25;;;8.60;;
11486;SDS011;10510;47.942;9.442;2023-01-31T00:12:28;18.55;;;9.07;;
11486;SDS011;10510;47.942;9.442;2023-01-31T00:14:28;17.02;;;7.47;;
11486;SDS011;10510;47.942;9.442;2023-01-31T00:16:28;16.15;;;8.38;;
11486;SDS011;10510;47.942;9.442;2023-01-31T00:18:29;17.00;;;8.15;;
11486;SDS011;10510;47.942;9.442;2023-01-31T00:20:30;19.33;;;8.90;;
11486;SDS011;10510;47.942;9.442;2023-01-31T00:22:30;19.88;;;8.73;;
11486;SDS011;10510;47.942;9.442;2023-01-31T00:24:30;17.55;;;8.35;;
11486;SDS011;10510;47.942;9.442;2023-01-31T00:26:31;19.45;;;9.35;;
11486;SDS011;10510;47.942;9.442;2023-01-31T00:28:33;20.63;;;8.30;;
11486;SDS011;10510;47.942;9.442;2023-01-31T00:30:33;20.00;;;9.48;;
11486;SDS011;10510;47.942;9.442;2023-01-31T00:32:34;19.20;;;9.00;;
11486;SDS011;10510;47.942;9.442;2023-01-31T00:34:34;18.52;;;8.18;;
11486;SDS011;10510;47.942;9.442;2023-01-31T00:36:34;17.35;;;8.18;;
11486;SDS011;10510;47.942;9.442;2023-01-31T00:38:35;20.85;;;7.55;;
11486;SDS011;10510;47.942;9.442;2023-01-31T00:40:36;18.10;;;7.50;;
11486;SDS011;10510;47.942;9.442;2023-01-31T00:42:36;17.95;;;7.97;;
11486;SDS011;10510;47.942;9.442;2023-01-31T00:44:36;16.75;;;7.88;;
11486;SDS011;10510;47.942;9.442;2023-01-31T00:46:36;19.95;;;7.85;;
11486;SDS011;10510;47.942;9.442;2023-01-31T00:48:37;19.92;;;8.25;;
11486;SDS011;10510;47.942;9.442;2023-01-31T00:50:38;17.73;;;7.95;;
11486;SDS011;10510;47.942;9.442;2023-01-31T00:52:38;16.70;;;7.68;;
11486;SDS011;10510;47.942;9.442;2023-01-31T00:54:38;23.67;;;9.55;;
11486;SDS011;10510;47.942;9.442;2023-01-31T00:56:39;16.73;;;8.02;;
11486;SDS011;10510;47.942;9.442;2023-01-31T00:58:39;16.42;;;7.47;;
11486;SDS011;10510;47.942;9.442;2023-01-31T01:00:39;21.17;;;8.60;;
11486;SDS011;10510;47.942;9.442;2023-01-31T01:02:39;19.55;;;7.95;;
11486;SDS011;10510;47.942;9.442;2023-01-31T01:04:40;16.75;;;8.10;;
11486;SDS011;10510;47.942;9.442;2023-01-31T01:06:40;20.60;;;8.35;;
11486;SDS011;10510;47.942;9.442;2023-01-31T01:08:41;16.73;;;7.57;;
11486;SDS011;10510;47.942;9.442;2023-01-31T01:10:41;21.05;;;8.00;;
11486;SDS011;10510;47.942;9.442;2023-01-31T01:12:41;17.50;;;8.50;;
11486;SDS011;10510;47.942;9.442;2023-01-31T01:14:42;17.77;;;8.02;;
11486;SDS011;10510;47.942;9.442;2023-01-31T01:16:42;15.98;;;7.45;;
11486;SDS011;10510;47.942;9.442;2023-01-31T01:18:43;16.70;;;7.35;;
11486;SDS011;10510;47.942;9.442;2023-01-31T01:20:45;16.15;;;6.93;;
11486;SDS011;10510;47.942;9.442;2023-01-31T01:22:45;15.85;;;7.00;;
11486;SDS011;10510;47.942;9.442;2023-01-31T01:24:46;16.73;;;7.47;;
11486;SDS011;10510;47.942;9.442;2023-01-31T01:26:46;15.23;;;7.43;;
11486;SDS011;10510;47.942;9.442;2023-01-31T01:28:47;15.23;;;6.97;;
11486;SDS011;10510;47.942;9.442;2023-01-31T01:30:47;16.75;;;6.60;;
11486;SDS011;10510;47.942;9.442;2023-01-31T01:32:48;15.90;;;7.25;;
11486;SDS011;10510;47.942;9.442;2023-01-31T01:34:48;14.65;;;6.65;;
11486;SDS011;10510;47.942;9.442;2023-01-31T01:36:48;20.83;;;7.63;;
11486;SDS011;10510;47.942;9.442;2023-01-31T01:38:49;18.65;;;6.25;;
11486;SDS011;10510;47.942;9.442;2023-01-31T01:40:49;17.50;;;7.32;;
11486;SDS011;10510;47.942;9.442;2023-01-31T01:42:49;14.13;;;6.57;;
11486;SDS011;10510;47.942;9.442;2023-01-31T01:46:51;15.57;;;6.50;;
11486;SDS011;10510;47.942;9.442;2023-01-31T01:48:54;13.70;;;6.05;;
11486;SDS011;10510;47.942;9.442;2023-01-31T01:51:02;13.45;;;6.15;;
11486;SDS011;10510;47.942;9.442;2023-01-31T01:57:33;13.13;;;5.90;;
11486;SDS011;10510;47.942;9.442;2023-01-31T01:59:40;12.80;;;5.65;;
11486;SDS011;10510;47.942;9.442;2023-01-31T02:01:48;16.00;;;6.32;;
11486;SDS011;10510;47.942;9.442;2023-01-31T02:03:50;13.80;;;5.90;;
11486;SDS011;10510;47.942;9.442;2023-01-31T02:05:53;12.30;;;5.45;;
11486;SDS011;10510;47.942;9.442;2023-01-31T02:07:58;12.75;;;6.30;;
11486;SDS011;10510;47.942;9.442;2023-01-31T02:10:11;12.45;;;5.55;;
11486;SDS011;10510;47.942;9.442;2023-01-31T02:12:16;14.18;;;6.40;;
11486;SDS011;10510;47.942;9.442;2023-01-31T02:14:17;18.17;;;6.55;;
11486;SDS011;10510;47.942;9.442;2023-01-31T02:16:18;13.77;;;6.30;;
11486;SDS011;10510;47.942;9.442;2023-01-31T02:18:19;17.40;;;6.88;;
11486;SDS011;10510;47.942;9.442;2023-01-31T02:20:33;14.02;;;5.75;;
11486;SDS011;10510;47.942;9.442;2023-01-31T02:22:54;14.82;;;6.07;;
11486;SDS011;10510;47.942;9.442;2023-01-31T02:25:23;10.57;;;6.13;;
11486;SDS011;10510;47.942;9.442;2023-01-31T02:29:46;13.45;;;5.70;;
11486;SDS011;10510;47.942;9.442;2023-01-31T02:34:40;12.35;;;5.93;;
11486;SDS011;10510;47.942;9.442;2023-01-31T02:39:37;12.40;;;6.22;;
11486;SDS011;10510;47.942;9.442;2023-01-31T02:41:53;11.90;;;5.70;;
11486;SDS011;10510;47.942;9.442;2023-01-31T02:46:59;15.23;;;6.68;;
11486;SDS011;10510;47.942;9.442;2023-01-31T02:49:07;14.25;;;6.43;;
11486;SDS011;10510;47.942;9.442;2023-01-31T02:51:35;15.18;;;7.28;;
11486;SDS011;10510;47.942;9.442;2023-01-31T02:54:04;15.85;;;8.70;;
11486;SDS011;10510;47.942;9.442;2023-01-31T02:56:16;13.95;;;6.90;;
11486;SDS011;10510;47.942;9.442;2023-01-31T02:58:22;15.27;;;6.72;;
11486;SDS011;10510;47.942;9.442;2023-01-31T03:00:26;15.18;;;6.53;;
11486;SDS011;10510;47.942;9.442;2023-01-31T03:02:30;17.48;;;7.22;;
11486;SDS011;10510;47.942;9.442;2023-01-31T03:04:31;16.85;;;7.65;;
11486;SDS011;10510;47.942;9.442;2023-01-31T03:08:36;14.10;;;6.93;;
11486;SDS011;10510;47.942;9.442;2023-01-31T03:10:44;14.60;;;7.18;;
11486;SDS011;10510;47.942;9.442;2023-01-31T03:18:06;22.95;;;7.65;;
11486;SDS011;10510;47.942;9.442;2023-01-31T03:22:41;17.45;;;6.78;;
11486;SDS011;10510;47.942;9.442;2023-01-31T03:24:45;17.35;;;6.90;;
11486;SDS011;10510;47.942;9.442;2023-01-31T03:26:49;15.57;;;7.07;;
11486;SDS011;10510;47.942;9.442;2023-01-31T03:28:51;17.40;;;7.53;;
11486;SDS011;10510;47.942;9.442;2023-01-31T03:33:09;16.15;;;6.75;;
11486;SDS011;10510;47.942;9.442;2023-01-31T03:35:13;15.23;;;7.07;;
11486;SDS011;10510;47.942;9.442;2023-01-31T03:39:27;19.58;;;6.70;;
11486;SDS011;10510;47.942;9.442;2023-01-31T03:41:46;13.15;;;6.88;;
11486;SDS011;10510;47.942;9.442;2023-01-31T03:43:57;12.23;;;6.28;;
11486;SDS011;10510;47.942;9.442;2023-01-31T03:46:06;13.70;;;6.22;;
11486;SDS011;10510;47.942;9.442;2023-01-31T03:48:10;11.95;;;5.85;;
11486;SDS011;10510;47.942;9.442;2023-01-31T03:52:25;16.58;;;7.07;;
11486;SDS011;10510;47.942;9.442;2023-01-31T03:54:42;12.40;;;6.68;;
11486;SDS011;10510;47.942;9.442;2023-01-31T03:56:52;12.32;;;6.32;;
11486;SDS011;10510;47.942;9.442;2023-01-31T03:59:02;15.23;;;6.45;;
11486;SDS011;10510;47.942;9.442;2023-01-31T04:01:07;17.98;;;7.00;;
11486;SDS011;10510;47.942;9.442;2023-01-31T04:03:11;17.50;;;7.25;;
11486;SDS011;10510;47.942;9.442;2023-01-31T04:07:20;15.45;;;5.95;;
11486;SDS011;10510;47.942;9.442;2023-01-31T04:09:21;12.35;;;6.13;;
11486;SDS011;10510;47.942;9.442;2023-01-31T04:11:26;16.40;;;7.03;;
11486;SDS011;10510;47.942;9.442;2023-01-31T04:13:26;10.15;;;5.32;;
11486;SDS011;10510;47.942;9.442;2023-01-31T04:15:27;12.73;;;5.65;;
11486;SDS011;10510;47.942;9.442;2023-01-31T04:17:27;17.92;;;7.40;;
11486;SDS011;10510;47.942;9.442;2023-01-31T04:19:27;17.20;;;6.53;;
11486;SDS011;10510;47.942;9.442;2023-01-31T04:21:27;12.95;;;5.93;;
11486;SDS011;10510;47.942;9.442;2023-01-31T04:23:28;14.65;;;5.75;;
11486;SDS011;10510;47.942;9.442;2023-01-31T04:25:28;14.60;;;6.45;;
11486;SDS011;10510;47.942;9.442;2023-01-31T04:27:28;12.95;;;6.75;;
11486;SDS011;10510;47.942;9.442;2023-01-31T04:29:28;16.52;;;5.55;;
11486;SDS011;10510;47.942;9.442;2023-01-31T04:31:29;13.75;;;6.00;;
11486;SDS011;10510;47.942;9.442;2023-01-31T04:33:29;19.55;;;5.47;;
11486;SDS011;10510;47.942;9.442;2023-01-31T04:35:30;15.68;;;6.05;;
11486;SDS011;10510;47.942;9.442;2023-01-31T04:37:30;13.15;;;5.78;;
11486;SDS011;10510;47.942;9.442;2023-01-31T04:39:30;11.43;;;5.22;;
11486;SDS011;10510;47.942;9.442;2023-01-31T04:41:30;15.27;;;5.68;;
11486;SDS011;10510;47.942;9.442;2023-01-31T04:43:31;12.18;;;5.80;;
11486;SDS011;10510;47.942;9.442;2023-01-31T04:45:31;13.80;;;5.70;;
11486;SDS011;10510;47.942;9.442;2023-01-31T04:47:31;19.63;;;6.78;;
11486;SDS011;10510;47.942;9.442;2023-01-31T04:49:31;15.25;;;5.80;;
11486;SDS011;10510;47.942;9.442;2023-01-31T04:51:32;13.77;;;6.03;;
11486;SDS011;10510;47.942;9.442;2023-01-31T04:53:32;16.13;;;6.35;;
11486;SDS011;10510;47.942;9.442;2023-01-31T04:55:33;15.13;;;5.80;;
11486;SDS011;10510;47.942;9.442;2023-01-31T04:57:34;14.30;;;5.78;;
11486;SDS011;10510;47.942;9.442;2023-01-31T04:59:34;15.43;;;5.75;;
11486;SDS011;10510;47.942;9.442;2023-01-31T05:01:35;14.75;;;6.80;;
11486;SDS011;10510;47.942;9.442;2023-01-31T05:03:35;23.10;;;8.00;;
11486;SDS011;10510;47.942;9.442;2023-01-31T05:05:35;17.65;;;7.72;;
11486;SDS011;10510;47.942;9.442;2023-01-31T05:07:36;17.17;;;7.07;;
11486;SDS011;10510;47.942;9.442;2023-01-31T05:09:37;18.50;;;7.47;;
11486;SDS011;10510;47.942;9.442;2023-01-31T05:11:37;21.23;;;9.77;;
11486;SDS011;10510;47.942;9.442;2023-01-31T05:13:38;29.70;;;10.45;;
11486;SDS011;10510;47.942;9.442;2023-01-31T05:15:39;26.10;;;9.68;;
11486;SDS011;10510;47.942;9.442;2023-01-31T05:17:40;30.10;;;9.90;;
11486;SDS011;10510;47.942;9.442;2023-01-31T05:19:40;43.40;;;13.98;;
11486;SDS011;10510;47.942;9.442;2023-01-31T05:21:42;61.65;;;19.13;;
11486;SDS011;10510;47.942;9.442;2023-01-31T05:23:57;51.55;;;15.77;;
11486;SDS011;10510;47.942;9.442;2023-01-31T05:25:58;43.03;;;13.73;;
11486;SDS011;10510;47.942;9.442;2023-01-31T05:27:58;24.48;;;10.15;;
11486;SDS011;10510;47.942;9.442;2023-01-31T05:29:58;27.27;;;8.35;;
11486;SDS011;10510;47.942;9.442;2023-01-31T05:32:00;27.65;;;10.35;;
11486;SDS011;10510;47.942;9.442;2023-01-31T05:34:01;34.40;;;10.82;;
11486;SDS011;10510;47.942;9.442;2023-01-31T05:36:02;27.05;;;8.95;;
11486;SDS011;10510;47.942;9.442;2023-01-31T05:38:02;25.30;;;7.75;;
11486;SDS011;10510;47.942;9.442;2023-01-31T05:40:02;22.77;;;7.25;;
11486;SDS011;10510;47.942;9.442;2023-01-31T05:42:03;26.83;;;8.52;;
11486;SDS011;10510;47.942;9.442;2023-01-31T05:44:03;18.83;;;6.82;;
11486;SDS011;10510;47.942;9.442;2023-01-31T05:46:04;19.67;;;7.45;;
11486;SDS011;10510;47.942;9.442;2023-01-31T05:48:04;18.63;;;7.70;;
11486;SDS011;10510;47.942;9.442;2023-01-31T05:50:04;20.98;;;7.78;;
11486;SDS011;10510;47.942;9.442;2023-01-31T05:52:05;26.67;;;7.45;;
11486;SDS011;10510;47.942;9.442;2023-01-31T05:54:06;23.90;;;8.68;;
11486;SDS011;10510;47.942;9.442;2023-01-31T05:56:07;25.48;;;8.23;;
11486;SDS011;10510;47.942;9.442;2023-01-31T05:58:07;39.08;;;9.52;;
11486;SDS011;10510;47.942;9.442;2023-01-31T06:00:07;34.25;;;9.45;;
11486;SDS011;10510;47.942;9.442;2023-01-31T06:02:08;25.20;;;8.32;;
11486;SDS011;10510;47.942;9.442;2023-01-31T06:04:10;26.38;;;9.82;;
11486;SDS011;10510;47.942;9.442;2023-01-31T06:06:10;23.05;;;9.07;;
11486;SDS011;10510;47.942;9.442;2023-01-31T06:08:11;34.25;;;9.50;;
11486;SDS011;10510;47.942;9.442;2023-01-31T06:10:11;27.45;;;9.48;;
11486;SDS011;10510;47.942;9.442;2023-01-31T06:12:12;26.33;;;8.70;;
11486;SDS011;10510;47.942;9.442;2023-01-31T06:14:14;24.67;;;8.10;;
11486;SDS011;10510;47.942;9.442;2023-01-31T06:16:14;20.10;;;8.10;;
11486;SDS011;10510;47.942;9.442;2023-01-31T06:18:14;18.08;;;7.85;;
11486;SDS011;10510;47.942;9.442;2023-01-31T06:20:14;19.50;;;7.38;;
11486;SDS011;10510;47.942;9.442;2023-01-31T06:22:16;19.08;;;7.55;;
11486;SDS011;10510;47.942;9.442;2023-01-31T06:24:17;16.48;;;6.75;;
11486;SDS011;10510;47.942;9.442;2023-01-31T06:26:17;19.90;;;7.10;;
11486;SDS011;10510;47.942;9.442;2023-01-31T06:28:17;16.73;;;6.80;;
11486;SDS011;10510;47.942;9.442;2023-01-31T06:30:18;20.63;;;7.72;;
11486;SDS011;10510;47.942;9.442;2023-01-31T06:32:18;18.90;;;8.35;;
11486;SDS011;10510;47.942;9.442;2023-01-31T06:34:19;20.33;;;7.90;;
11486;SDS011;10510;47.942;9.442;2023-01-31T06:36:19;24.50;;;9.45;;
11486;SDS011;10510;47.942;9.442;2023-01-31T06:38:19;18.48;;;7.45;;
11486;SDS011;10510;47.942;9.442;2023-01-31T06:40:20;18.42;;;7.97;;
11486;SDS011;10510;47.942;9.442;2023-01-31T06:42:20;18.92;;;7.13;;
11486;SDS011;10510;47.942;9.442;2023-01-31T06:44:20;21.90;;;8.20;;
11486;SDS011;10510;47.942;9.442;2023-01-31T06:46:20;22.02;;;9.68;;
11486;SDS011;10510;47.942;9.442;2023-01-31T06:48:21;22.52;;;9.45;;
11486;SDS011;10510;47.942;9.442;2023-01-31T06:50:21;19.48;;;8.23;;
11486;SDS011;10510;47.942;9.442;2023-01-31T06:52:21;20.65;;;8.02;;
11486;SDS011;10510;47.942;9.442;2023-01-31T06:54:22;19.50;;;8.35;;
11486;SDS011;10510;47.942;9.442;2023-01-31T06:56:22;16.58;;;8.80;;
11486;SDS011;10510;47.942;9.442;2023-01-31T06:58:22;15.10;;;8.23;;
11486;SDS011;10510;47.942;9.442;2023-01-31T07:00:23;19.70;;;8.60;;
11486;SDS011;10510;47.942;9.442;2023-01-31T07:02:24;20.45;;;9.18;;
11486;SDS011;10510;47.942;9.442;2023-01-31T07:04:25;17.08;;;8.60;;
11486;SDS011;10510;47.942;9.442;2023-01-31T07:06:25;15.68;;;7.35;;
11486;SDS011;10510;47.942;9.442;2023-01-31T07:08:25;13.82;;;7.30;;
11486;SDS011;10510;47.942;9.442;2023-01-31T07:10:25;17.70;;;7.03;;
11486;SDS011;10510;47.942;9.442;2023-01-31T07:12:26;19.55;;;8.48;;
11486;SDS011;10510;47.942;9.442;2023-01-31T07:14:27;16.98;;;8.65;;
11486;SDS011;10510;47.942;9.442;2023-01-31T07:16:27;18.85;;;7.95;;
11486;SDS011;10510;47.942;9.442;2023-01-31T07:18:27;21.85;;;7.03;;
11486;SDS011;10510;47.942;9.442;2023-01-31T07:20:28;23.42;;;10.32;;
11486;SDS011;10510;47.942;9.442;2023-01-31T07:22:28;19.80;;;9.65;;
11486;SDS011;10510;47.942;9.442;2023-01-31T07:24:28;17.80;;;9.05;;
11486;SDS011;10510;47.942;9.442;2023-01-31T07:26:28;34.63;;;15.25;;
11486;SDS011;10510;47.942;9.442;2023-01-31T07:28:29;20.63;;;9.27;;
11486;SDS011;10510;47.942;9.442;2023-01-31T07:30:30;20.83;;;10.00;;
11486;SDS011;10510;47.942;9.442;2023-01-31T07:32:30;33.03;;;15.98;;
11486;SDS011;10510;47.942;9.442;2023-01-31T07:34:31;24.63;;;10.82;;
11486;SDS011;10510;47.942;9.442;2023-01-31T07:36:31;25.67;;;12.63;;
11486;SDS011;10510;47.942;9.442;2023-01-31T07:38:31;22.90;;;12.75;;
11486;SDS011;10510;47.942;9.442;2023-01-31T07:40:33;27.33;;;12.45;;
11486;SDS011;10510;47.942;9.442;2023-01-31T07:42:33;28.40;;;10.98;;
11486;SDS011;10510;47.942;9.442;2023-01-31T07:44:33;24.20;;;8.48;;
11486;SDS011;10510;47.942;9.442;2023-01-31T07:46:34;27.70;;;13.55;;
11486;SDS011;10510;47.942;9.442;2023-01-31T07:48:34;19.75;;;9.48;;
11486;SDS011;10510;47.942;9.442;2023-01-31T07:50:34;23.38;;;10.07;;
11486;SDS011;10510;47.942;9.442;2023-01-31T07:52:35;24.13;;;6.60;;
11486;SDS011;10510;47.942;9.442;2023-01-31T07:54:35;22.15;;;7.38;;
11486;SDS011;10510;47.942;9.442;2023-01-31T07:56:35;17.80;;;7.30;;
11486;SDS011;10510;47.942;9.442;2023-01-31T07:58:36;12.98;;;5.60;;
11486;SDS011;10510;47.942;9.442;2023-01-31T08:00:38;14.15;;;5.93;;
11486;SDS011;10510;47.942;9.442;2023-01-31T08:02:58;16.25;;;7.30;;
11486;SDS011;10510;47.942;9.442;2023-01-31T08:05:16;13.55;;;5.90;;
11486;SDS011;10510;47.942;9.442;2023-01-31T08:07:17;15.45;;;6.03;;
11486;SDS011;10510;47.942;9.442;2023-01-31T08:09:17;16.17;;;6.47;;
11486;SDS011;10510;47.942;9.442;2023-01-31T08:11:17;16.30;;;6.60;;
11486;SDS011;10510;47.942;9.442;2023-01-31T08:13:17;16.38;;;6.55;;
11486;SDS011;10510;47.942;9.442;2023-01-31T08:15:18;15.20;;;6.32;;
11486;SDS011;10510;47.942;9.442;2023-01-31T08:17:18;30.33;;;13.98;;
11486;SDS011;10510;47.942;9.442;2023-01-31T08:19:18;15.38;;;6.32;;
11486;SDS011;10510;47.942;9.442;2023-01-31T08:21:19;15.77;;;6.25;;
11486;SDS011;10510;47.942;9.442;2023-01-31T08:23:19;20.67;;;6.80;;
11486;SDS011;10510;47.942;9.442;2023-01-31T08:25:19;14.75;;;5.15;;
11486;SDS011;10510;47.942;9.442;2023-01-31T08:27:20;17.27;;;6.53;;
11486;SDS011;10510;47.942;9.442;2023-01-31T08:29:20;13.02;;;4.75;;
11486;SDS011;10510;47.942;9.442;2023-01-31T08:31:22;12.60;;;5.05;;
11486;SDS011;10510;47.942;9.442;2023-01-31T08:33:23;16.60;;;5.40;;
11486;SDS011;10510;47.942;9.442;2023-01-31T08:35:24;16.35;;;6.68;;
11486;SDS011;10510;47.942;9.442;2023-01-31T08:37:26;32.78;;;10.57;;
11486;SDS011;10510;47.942;9.442;2023-01-31T08:39:26;14.68;;;7.28;;
11486;SDS011;10510;47.942;9.442;2023-01-31T08:41:27;14.27;;;6.85;;
11486;SDS011;10510;47.942;9.442;2023-01-31T08:43:28;14.65;;;6.78;;
11486;SDS011;10510;47.942;9.442;2023-01-31T08:45:28;13.48;;;6.78;;
11486;SDS011;10510;47.942;9.442;2023-01-31T08:47:29;18.15;;;6.47;;
11486;SDS011;10510;47.942;9.442;2023-01-31T08:49:29;15.20;;;6.03;;
11486;SDS011;10510;47.942;9.442;2023-01-31T08:51:30;13.55;;;5.90;;
11486;SDS011;10510;47.942;9.442;2023-01-31T08:53:30;16.77;;;6.93;;
11486;SDS011;10510;47.942;9.442;2023-01-31T08:55:33;22.45;;;7.88;;
11486;SDS011;10510;47.942;9.442;2023-01-31T08:57:34;18.92;;;8.27;;
11486;SDS011;10510;47.942;9.442;2023-01-31T08:59:34;20.38;;;10.27;;
11486;SDS011;10510;47.942;9.442;2023-01-31T09:01:35;16.17;;;7.00;;
11486;SDS011;10510;47.942;9.442;2023-01-31T09:03:35;11.18;;;4.90;;
11486;SDS011;10510;47.942;9.442;2023-01-31T09:05:35;8.48;;;5.20;;
11486;SDS011;10510;47.942;9.442;2023-01-31T09:07:36;9.90;;;4.80;;
11486;SDS011;10510;47.942;9.442;2023-01-31T09:09:36;11.18;;;4.60;;
11486;SDS011;10510;47.942;9.442;2023-01-31T09:11:36;14.02;;;4.70;;
11486;SDS011;10510;47.942;9.442;2023-01-31T09:13:38;6.80;;;3.65;;
11486;SDS011;10510;47.942;9.442;2023-01-31T09:15:38;11.45;;;4.43;;
11486;SDS011;10510;47.942;9.442;2023-01-31T09:17:39;16.05;;;5.78;;
11486;SDS011;10510;47.942;9.442;2023-01-31T09:19:39;15.15;;;6.38;;
11486;SDS011;10510;47.942;9.442;2023-01-31T09:21:40;14.95;;;5.85;;
11486;SDS011;10510;47.942;9.442;2023-01-31T09:23:40;11.40;;;5.10;;
11486;SDS011;10510;47.942;9.442;2023-01-31T09:25:41;14.73;;;4.97;;
11486;SDS011;10510;47.942;9.442;2023-01-31T09:27:41;9.00;;;3.60;;
11486;SDS011;10510;47.942;9.442;2023-01-31T09:29:41;7.95;;;3.78;;
11486;SDS011;10510;47.942;9.442;2023-01-31T09:31:42;11.63;;;5.90;;
11486;SDS011;10510;47.942;9.442;2023-01-31T09:33:42;14.65;;;4.20;;
11486;SDS011;10510;47.942;9.442;2023-01-31T09:35:53;10.48;;;4.20;;
11486;SDS011;10510;47.942;9.442;2023-01-31T09:37:54;9.15;;;4.70;;
11486;SDS011;10510;47.942;9.442;2023-01-31T09:39:54;11.40;;;4.65;;
11486;SDS011;10510;47.942;9.442;2023-01-31T09:42:00;8.13;;;4.90;;
11486;SDS011;10510;47.942;9.442;2023-01-31T09:44:13;9.35;;;4.72;;
11486;SDS011;10510;47.942;9.442;2023-01-31T09:46:20;20.85;;;8.48;;
11486;SDS011;10510;47.942;9.442;2023-01-31T09:48:26;13.43;;;6.90;;
11486;SDS011;10510;47.942;9.442;2023-01-31T09:50:41;16.45;;;7.10;;
11486;SDS011;10510;47.942;9.442;2023-01-31T09:52:45;23.02;;;8.73;;
11486;SDS011;10510;47.942;9.442;2023-01-31T09:54:46;19.98;;;6.95;;
11486;SDS011;10510;47.942;9.442;2023-01-31T09:57:00;28.65;;;9.77;;
11486;SDS011;10510;47.942;9.442;2023-01-31T09:59:19;20.48;;;8.32;;
11486;SDS011;10510;47.942;9.442;2023-01-31T10:14:49;10.30;;;4.93;;
11486;SDS011;10510;47.942;9.442;2023-01-31T10:17:06;11.73;;;6.95;;
11486;SDS011;10510;47.942;9.442;2023-01-31T10:19:16;10.75;;;6.32;;
11486;SDS011;10510;47.942;9.442;2023-01-31T10:21:22;10.23;;;5.78;;
11486;SDS011;10510;47.942;9.442;2023-01-31T10:23:32;10.32;;;5.10;;
11486;SDS011;10510;47.942;9.442;2023-01-31T10:25:39;11.57;;;6.35;;
11486;SDS011;10510;47.942;9.442;2023-01-31T10:27:47;11.60;;;5.93;;
11486;SDS011;10510;47.942;9.442;2023-01-31T10:29:51;10.50;;;5.25;;
11486;SDS011;10510;47.942;9.442;2023-01-31T10:31:57;9.90;;;5.25;;
11486;SDS011;10510;47.942;9.442;2023-01-31T10:34:05;11.93;;;5.22;;
11486;SDS011;10510;47.942;9.442;2023-01-31T10:36:13;15.27;;;7.20;;
11486;SDS011;10510;47.942;9.442;2023-01-31T10:38:21;11.80;;;6.25;;
11486;SDS011;10510;47.942;9.442;2023-01-31T10:40:29;10.10;;;5.57;;
11486;SDS011;10510;47.942;9.442;2023-01-31T10:42:35;15.48;;;5.88;;
11486;SDS011;10510;47.942;9.442;2023-01-31T10:44:46;13.35;;;5.93;;
11486;SDS011;10510;47.942;9.442;2023-01-31T10:46:55;12.25;;;5.30;;
11486;SDS011;10510;47.942;9.442;2023-01-31T10:48:57;17.30;;;6.32;;
11486;SDS011;10510;47.942;9.442;2023-01-31T10:58:20;10.00;;;5.07;;
11486;SDS011;10510;47.942;9.442;2023-01-31T11:00:25;10.70;;;5.13;;
11486;SDS011;10510;47.942;9.442;2023-01-31T11:02:29;9.05;;;4.72;;
11486;SDS011;10510;47.942;9.442;2023-01-31T11:04:31;14.15;;;4.85;;
11486;SDS011;10510;47.942;9.442;2023-01-31T11:06:37;8.60;;;4.50;;
11486;SDS011;10510;47.942;9.442;2023-01-31T11:08:41;8.93;;;4.90;;
11486;SDS011;10510;47.942;9.442;2023-01-31T11:10:52;14.82;;;7.85;;
11486;SDS011;10510;47.942;9.442;2023-01-31T11:13:01;10.70;;;4.82;;
11486;SDS011;10510;47.942;9.442;2023-01-31T11:15:10;11.40;;;4.78;;
11486;SDS011;10510;47.942;9.442;2023-01-31T11:21:33;11.35;;;3.97;;
11486;SDS011;10510;47.942;9.442;2023-01-31T11:23:35;17.33;;;5.03;;
11486;SDS011;10510;47.942;9.442;2023-01-31T11:25:36;9.75;;;4.97;;
11486;SDS011;10510;47.942;9.442;2023-01-31T11:27:37;11.30;;;5.05;;
11486;SDS011;10510;47.942;9.442;2023-01-31T11:29:47;8.80;;;4.20;;
11486;SDS011;10510;47.942;9.442;2023-01-31T11:31:49;11.07;;;5.47;;
11486;SDS011;10510;47.942;9.442;2023-01-31T11:33:56;10.25;;;4.38;;
11486;SDS011;10510;47.942;9.442;2023-01-31T11:36:00;10.93;;;5.05;;
11486;SDS011;10510;47.942;9.442;2023-01-31T11:42:14;7.43;;;3.72;;
11486;SDS011;10510;47.942;9.442;2023-01-31T11:44:16;7.05;;;3.70;;
11486;SDS011;10510;47.942;9.442;2023-01-31T11:46:18;10.65;;;4.68;;
11486;SDS011;10510;47.942;9.442;2023-01-31T11:48:23;9.88;;;4.50;;
11486;SDS011;10510;47.942;9.442;2023-01-31T11:50:30;9.93;;;4.90;;
11486;SDS011;10510;47.942;9.442;2023-01-31T11:52:33;11.23;;;4.60;;
11486;SDS011;10510;47.942;9.442;2023-01-31T11:54:33;13.15;;;5.35;;
11486;SDS011;10510;47.942;9.442;2023-01-31T11:56:34;8.07;;;4.35;;
11486;SDS011;10510;47.942;9.442;2023-01-31T11:58:37;16.38;;;4.82;;
11486;SDS011;10510;47.942;9.442;2023-01-31T12:00:39;9.02;;;4.18;;
11486;SDS011;10510;47.942;9.442;2023-01-31T12:02:58;9.63;;;4.47;;
11486;SDS011;10510;47.942;9.442;2023-01-31T12:05:06;13.93;;;4.55;;
11486;SDS011;10510;47.942;9.442;2023-01-31T12:07:31;9.77;;;3.65;;
11486;SDS011;10510;47.942;9.442;2023-01-31T12:09:41;8.55;;;4.10;;
11486;SDS011;10510;47.942;9.442;2023-01-31T12:11:48;9.77;;;4.00;;
11486;SDS011;10510;47.942;9.442;2023-01-31T12:13:59;12.57;;;4.38;;
11486;SDS011;10510;47.942;9.442;2023-01-31T12:16:05;8.32;;;3.63;;
11486;SDS011;10510;47.942;9.442;2023-01-31T12:18:07;14.60;;;4.72;;
11486;SDS011;10510;47.942;9.442;2023-01-31T12:22:24;9.57;;;3.78;;
11486;SDS011;10510;47.942;9.442;2023-01-31T12:27:09;11.55;;;3.92;;
11486;SDS011;10510;47.942;9.442;2023-01-31T12:31:53;6.40;;;3.60;;
11486;SDS011;10510;47.942;9.442;2023-01-31T12:38:55;21.63;;;6.18;;
11486;SDS011;10510;47.942;9.442;2023-01-31T12:41:20;18.83;;;5.22;;
11486;SDS011;10510;47.942;9.442;2023-01-31T12:48:06;18.20;;;5.20;;
11486;SDS011;10510;47.942;9.442;2023-01-31T12:52:24;12.60;;;3.65;;
11486;SDS011;10510;47.942;9.442;2023-01-31T12:54:51;12.43;;;4.35;;
11486;SDS011;10510;47.942;9.442;2023-01-31T13:04:14;8.13;;;3.97;;
11486;SDS011;10510;47.942;9.442;2023-01-31T13:06:18;12.55;;;4.20;;
11486;SDS011;10510;47.942;9.442;2023-01-31T13:08:27;9.30;;;4.18;;
11486;SDS011;10510;47.942;9.442;2023-01-31T13:12:36;9.45;;;3.95;;
11486;SDS011;10510;47.942;9.442;2023-01-31T13:14:38;11.73;;;4.10;;
11486;SDS011;10510;47.942;9.442;2023-01-31T13:16:42;8.27;;;3.53;;
11486;SDS011;10510;47.942;9.442;2023-01-31T13:18:48;11.90;;;3.38;;
11486;SDS011;10510;47.942;9.442;2023-01-31T13:20:56;11.05;;;4.13;;
11486;SDS011;10510;47.942;9.442;2023-01-31T13:23:00;5.68;;;3.30;;
11486;SDS011;10510;47.942;9.442;2023-01-31T13:27:20;11.30;;;4.00;;
11486;SDS011;10510;47.942;9.442;2023-01-31T13:29:27;7.63;;;3.97;;
11486;SDS011;10510;47.942;9.442;2023-01-31T13:31:35;9.95;;;4.50;;
11486;SDS011;10510;47.942;9.442;2023-01-31T13:36:22;11.55;;;4.10;;
11486;SDS011;10510;47.942;9.442;2023-01-31T13:38:26;8.20;;;3.58;;
11486;SDS011;10510;47.942;9.442;2023-01-31T13:40:35;10.33;;;4.40;;
11486;SDS011;10510;47.942;9.442;2023-01-31T13:44:41;9.23;;;4.00;;
11486;SDS011;10510;47.942;9.442;2023-01-31T13:46:45;12.77;;;4.63;;
11486;SDS011;10510;47.942;9.442;2023-01-31T13:49:00;19.30;;;4.65;;
11486;SDS011;10510;47.942;9.442;2023-01-31T13:53:56;9.90;;;4.65;;
11486;SDS011;10510;47.942;9.442;2023-01-31T13:55:57;7.78;;;4.15;;